Time;durP1;ratioP1;P1;durP2;ratioP2;P2;SDS_P1;SDS_P2;PMS_P1;PMS_P2;Temp;Humidity;BMP_temperature;BMP_pressure;BME280_temperature;BME280_humidity;BME280_pressure;Samples;Min_cycle;Max_cycle;Signal;HPM_P1;HPM_P2
2023/06/12 00:00:00;;;;;;;8.97;3.00;;;;;;;22.59;51.29;98121.41;4957272;28;20030;-76
2023/06/12 00:02:25;;;;;;;5.32;2.80;;;;;;;22.61;51.39;98123.84;4973291;28;20027;-76
2023/06/12 00:04:54;;;;;;;5.30;2.95;;;;;;;22.55;51.21;98117.50;4973079;28;20590;-76
2023/06/12 00:07:21;;;;;;;7.82;3.08;;;;;;;22.58;51.51;98130.41;4973511;28;20039;-76
2023/06/12 00:09:47;;;;;;;4.27;2.83;;;;;;;22.55;51.38;98121.00;4957471;28;20113;-76
2023/06/12 00:12:13;;;;;;;9.32;4.40;;;;;;;22.52;51.70;98125.94;4973481;28;20439;-76
2023/06/12 00:14:39;;;;;;;9.43;5.97;;;;;;;22.53;51.49;98133.72;4973464;28;20045;-76
2023/06/12 00:17:04;;;;;;;9.98;6.60;;;;;;;22.48;51.59;98130.84;4973108;28;20043;-76
2023/06/12 00:19:30;;;;;;;11.65;8.05;;;;;;;22.46;51.67;98126.78;4972987;28;20138;-76
2023/06/12 00:21:56;;;;;;;12.07;8.27;;;;;;;22.47;51.62;98134.53;4957249;28;20393;-76
2023/06/12 00:24:22;;;;;;;13.30;8.57;;;;;;;22.47;51.60;98139.88;4972933;28;20051;-76
2023/06/12 00:26:47;;;;;;;11.55;7.78;;;;;;;22.43;51.98;98133.31;4974456;28;20033;-76
2023/06/12 00:29:13;;;;;;;14.68;8.25;;;;;;;22.44;51.91;98139.44;4974231;28;20070;-76
2023/06/12 00:31:38;;;;;;;11.77;8.05;;;;;;;22.41;51.78;98138.03;4973028;28;20478;-76
2023/06/12 00:34:04;;;;;;;10.20;7.40;;;;;;;22.39;52.10;98142.72;4973246;28;20046;-76
2023/06/12 00:36:29;;;;;;;8.60;6.50;;;;;;;22.36;51.91;98132.50;4972871;28;20467;-76
2023/06/12 00:38:55;;;;;;;10.88;5.95;;;;;;;22.33;52.12;98133.75;4974186;28;20034;-76
2023/06/12 00:41:21;;;;;;;9.38;6.00;;;;;;;22.30;52.12;98134.16;4972985;28;20031;-75
2023/06/12 00:43:46;;;;;;;10.07;5.70;;;;;;;22.28;52.16;98127.38;4972893;28;20395;-76
2023/06/12 00:46:12;;;;;;;8.15;5.10;;;;;;;22.28;52.07;98133.53;4973930;28;20390;-76
2023/06/12 00:48:38;;;;;;;8.13;4.82;;;;;;;22.26;52.33;98132.91;4957547;28;20027;-76
2023/06/12 00:51:08;;;;;;;10.75;4.50;;;;;;;22.22;52.24;98137.81;4973053;28;20026;-76
2023/06/12 00:53:36;;;;;;;10.70;4.80;;;;;;;22.20;52.20;98139.03;4956851;28;20521;-76
2023/06/12 00:56:01;;;;;;;;;;;;;;;22.22;52.14;98143.13;4957418;28;20071;-76
2023/06/12 00:58:27;;;;;;;13.52;7.85;;;;;;;22.14;52.17;98138.03;4973856;28;19922;-76
2023/06/12 01:00:54;;;;;;;12.80;9.25;;;;;;;22.16;52.41;98143.16;4972855;28;20054;-76
2023/06/12 01:03:21;;;;;;;13.68;9.52;;;;;;;22.15;52.40;98152.13;4972747;28;20418;-76
2023/06/12 01:05:47;;;;;;;13.98;9.38;;;;;;;22.11;52.35;98140.31;4956761;28;20126;-76
2023/06/12 01:08:37;;;;;;;13.80;9.68;;;;;;;22.09;52.42;98140.50;4956802;28;20118;-76
2023/06/12 01:11:05;;;;;;;11.18;8.02;;;;;;;22.06;52.62;98140.91;4956360;28;20462;-76
2023/06/12 01:13:31;;;;;;;10.05;7.90;;;;;;;22.02;52.65;98145.81;4956397;28;20038;-76
2023/06/12 01:15:57;;;;;;;11.48;7.20;;;;;;;22.02;52.51;98147.66;4956658;28;20101;-76
2023/06/12 01:18:23;;;;;;;11.20;7.15;;;;;;;22.02;52.53;98150.31;4972775;28;20030;-76
2023/06/12 01:20:49;;;;;;;10.10;6.38;;;;;;;21.99;52.63;98148.88;4972376;28;20450;-76
2023/06/12 01:23:18;;;;;;;10.85;5.78;;;;;;;21.96;52.58;98156.44;4972265;28;20047;-76
2023/06/12 01:25:49;;;;;;;7.90;5.75;;;;;;;21.98;52.47;98146.41;4973409;28;20034;-75
2023/06/12 01:28:23;;;;;;;7.70;5.40;;;;;;;21.96;52.52;98159.91;4972920;28;20027;-75
2023/06/12 01:31:09;;;;;;;9.13;5.28;;;;;;;21.97;52.69;98158.09;4972303;28;20130;-77
2023/06/12 01:33:37;;;;;;;11.32;4.88;;;;;;;21.92;52.73;98158.69;4972707;28;20494;-75
2023/06/12 01:36:03;;;;;;;7.72;4.38;;;;;;;21.94;52.70;98158.50;4973486;28;20035;-76
2023/06/12 01:38:30;;;;;;;10.70;4.57;;;;;;;21.88;52.89;98154.00;4972062;28;20085;-76
2023/06/12 01:40:56;;;;;;;6.83;3.73;;;;;;;21.92;52.84;98161.34;4972435;28;20034;-76
2023/06/12 01:43:22;;;;;;;7.50;3.92;;;;;;;21.92;52.73;98153.38;4972769;28;20630;-76
2023/06/12 01:45:48;;;;;;;7.60;4.00;;;;;;;21.92;52.79;98161.34;4955872;28;20019;-76
2023/06/12 01:48:14;;;;;;;7.38;3.75;;;;;;;21.88;52.89;98152.16;4972427;28;20035;-75
2023/06/12 01:50:40;;;;;;;7.75;3.67;;;;;;;21.89;52.66;98155.66;4955995;28;20038;-76
2023/06/12 01:53:07;;;;;;;4.43;3.45;;;;;;;21.89;52.94;98163.63;4972128;28;20560;-76
2023/06/12 01:55:33;;;;;;;6.85;3.60;;;;;;;21.86;52.69;98164.81;4972268;28;20541;-76
2023/06/12 01:57:59;;;;;;;9.98;3.25;;;;;;;21.90;52.60;98175.84;4956149;28;20122;-75
2023/06/12 02:00:24;;;;;;;7.57;3.30;;;;;;;21.86;52.95;98170.13;4956057;28;20038;-76
2023/06/12 02:02:55;;;;;;;8.45;3.70;;;;;;;21.85;52.83;98171.16;4973188;28;20034;-76
2023/06/12 02:05:20;;;;;;;5.90;3.00;;;;;;;21.89;53.00;98179.56;4956093;28;20033;-76
2023/06/12 02:07:46;;;;;;;6.35;3.28;;;;;;;21.88;52.79;98170.75;4974399;28;20031;-77
2023/06/12 02:10:11;;;;;;;5.13;3.33;;;;;;;21.88;52.67;98172.59;4975513;28;20490;-76
2023/06/12 02:12:36;;;;;;;7.50;4.00;;;;;;;21.88;53.07;98173.41;4975810;28;20057;-76
2023/06/12 02:15:02;;;;;;;6.57;4.70;;;;;;;21.84;53.17;98166.88;4975575;28;20043;-76
2023/06/12 02:17:28;;;;;;;15.00;5.22;;;;;;;21.82;53.06;98166.25;4976792;28;20467;-75
2023/06/12 02:19:53;;;;;;;9.20;5.63;;;;;;;21.81;53.13;98165.44;4975449;28;20470;-76
2023/06/12 02:22:19;;;;;;;11.48;6.05;;;;;;;21.78;53.08;98165.84;4975180;28;20406;-76
2023/06/12 02:24:46;;;;;;;7.18;5.55;;;;;;;21.79;53.12;98174.63;4959361;28;20105;-76
2023/06/12 02:27:12;;;;;;;6.93;5.10;;;;;;;21.79;53.14;98177.28;4975382;28;20035;-76
2023/06/12 02:29:37;;;;;;;10.95;5.20;;;;;;;21.78;52.89;98179.13;4959025;28;20097;-76
2023/06/12 02:32:03;;;;;;;6.63;4.68;;;;;;;21.75;53.23;98171.56;4975217;28;20061;-76
2023/06/12 02:34:28;;;;;;;8.00;4.57;;;;;;;21.76;52.95;98172.38;4959158;28;20494;-76
2023/06/12 02:36:55;;;;;;;7.57;4.40;;;;;;;21.70;53.23;98166.03;4976849;28;20049;-76
2023/06/12 02:39:21;;;;;;;7.05;4.20;;;;;;;21.73;53.31;98176.25;4959076;28;20402;-76
2023/06/12 02:41:47;;;;;;;9.65;4.10;;;;;;;21.72;53.28;98182.59;4976007;28;20402;-76
2023/06/12 02:44:13;;;;;;;7.75;3.92;;;;;;;21.68;53.07;98178.72;4959089;28;20035;-76
2023/06/12 02:46:51;;;;;;;8.43;4.10;;;;;;;21.71;53.33;98188.09;4958997;28;20557;-76
2023/06/12 02:49:18;;;;;;;8.75;4.30;;;;;;;21.66;53.19;98186.88;4974918;28;20030;-76
2023/06/12 02:51:43;;;;;;;8.40;3.75;;;;;;;21.71;52.97;98202.19;4958907;28;20041;-75
2023/06/12 02:54:09;;;;;;;11.18;4.78;;;;;;;21.71;53.08;98202.19;4976006;28;20054;-75
2023/06/12 02:56:34;;;;;;;7.00;4.15;;;;;;;21.69;53.06;98202.38;4958625;28;20051;-75
2023/06/12 02:59:00;;;;;;;7.18;3.60;;;;;;;21.72;53.05;98206.50;4958669;28;20038;-76
2023/06/12 03:01:26;;;;;;;9.75;4.10;;;;;;;21.74;52.97;98196.47;4974805;28;20371;-75
2023/06/12 03:03:52;;;;;;;7.40;3.85;;;;;;;21.82;52.50;98211.41;4974621;28;20031;-76
2023/06/12 03:06:18;;;;;;;9.25;4.13;;;;;;;21.92;52.50;98219.81;4974823;28;20027;-76
2023/06/12 03:08:44;;;;;;;18.95;3.95;;;;;;;22.04;52.12;98206.72;4958522;28;20054;-76
2023/06/12 03:11:10;;;;;;;7.40;4.00;;;;;;;22.22;51.58;98214.91;4974813;28;20394;-76
2023/06/12 03:13:35;;;;;;;5.78;3.45;;;;;;;22.37;51.00;98208.59;4958714;28;20037;-76
2023/06/12 03:16:02;;;;;;;6.40;3.25;;;;;;;22.72;50.43;98211.00;4974132;28;20462;-76
2023/06/12 03:18:27;;;;;;;6.00;3.42;;;;;;;23.01;49.60;98204.38;4957947;28;20068;-76
2023/06/12 03:20:53;;;;;;;10.77;4.07;;;;;;;23.27;49.15;98207.97;4957796;28;20410;-76
2023/06/12 03:23:18;;;;;;;11.30;4.55;;;;;;;23.52;48.41;98217.91;4958003;28;20062;-75
2023/06/12 03:25:44;;;;;;;8.13;3.97;;;;;;;23.78;49.40;98220.41;4958030;28;20050;-78
2023/06/12 03:28:10;;;;;;;7.22;2.33;;;;;;;24.60;50.74;98224.13;4974133;28;20022;-70
2023/06/12 03:30:35;;;;;;;9.63;2.85;;;;;;;25.42;48.23;98223.81;4975092;28;20031;-74
2023/06/12 03:33:01;;;;;;;17.08;3.13;;;;;;;26.11;46.72;98220.81;4958503;28;20035;-69
2023/06/12 03:35:29;;;;;;;18.33;3.08;;;;;;;26.72;44.93;98210.72;4974907;28;20089;-74
2023/06/12 03:37:55;;;;;;;19.27;3.45;;;;;;;27.32;43.42;98219.47;4957937;28;20031;-75
2023/06/12 03:40:20;;;;;;;8.05;2.88;;;;;;;27.93;41.85;98214.41;4974932;28;20506;-73
2023/06/12 03:42:46;;;;;;;30.88;3.20;;;;;;;28.51;40.56;98223.09;4957915;28;20035;-73
2023/06/12 03:45:11;;;;;;;8.85;2.80;;;;;;;29.05;38.94;98228.69;4973654;28;20463;-71
2023/06/12 03:47:36;;;;;;;13.82;3.05;;;;;;;29.34;37.68;98223.16;4973584;28;20035;-73
2023/06/12 03:50:02;;;;;;;10.15;3.28;;;;;;;29.46;36.46;98222.19;4975510;28;20042;-72
2023/06/12 03:52:28;;;;;;;10.57;4.47;;;;;;;29.26;36.72;98222.78;4957457;28;20460;-72
2023/06/12 03:54:53;;;;;;;9.15;4.13;;;;;;;29.30;36.73;98227.38;4973251;28;20051;-71
2023/06/12 03:57:20;;;;;;;9.57;3.47;;;;;;;29.92;35.42;98228.03;4973568;28;20197;-71
2023/06/12 03:59:46;;;;;;;7.60;3.60;;;;;;;30.41;34.32;98210.94;4973528;28;20037;-71
2023/06/12 04:02:12;;;;;;;7.40;3.40;;;;;;;30.96;33.33;98235.78;4957194;28;20101;-73
2023/06/12 04:04:37;;;;;;;9.93;3.42;;;;;;;31.40;32.90;98227.34;4954789;28;20086;-72
2023/06/12 04:07:03;;;;;;;12.15;3.75;;;;;;;31.82;32.02;98223.69;4956259;28;20046;-71
2023/06/12 04:09:28;;;;;;;8.07;3.03;;;;;;;32.14;30.88;98214.53;4957153;28;20050;-71
2023/06/12 04:11:54;;;;;;;6.32;2.90;;;;;;;31.92;30.92;98220.97;4973087;28;20030;-71
2023/06/12 04:14:20;;;;;;;8.93;3.00;;;;;;;32.10;30.79;98221.53;4973129;28;20457;-71
2023/06/12 04:16:46;;;;;;;5.95;2.83;;;;;;;32.77;29.33;98230.38;4974431;28;20102;-71
2023/06/12 04:19:12;;;;;;;7.93;3.05;;;;;;;33.20;28.54;98224.56;4973078;28;20038;-70
2023/06/12 04:21:37;;;;;;;7.90;2.90;;;;;;;33.59;27.73;98223.81;4974532;28;20402;-71
2023/06/12 04:24:04;;;;;;;8.77;2.83;;;;;;;34.04;27.25;98231.91;4973001;28;20038;-71
2023/06/12 04:26:34;;;;;;;9.60;2.60;;;;;;;34.42;26.12;98229.44;4972824;28;20023;-71
2023/06/12 04:29:02;;;;;;;7.97;2.70;;;;;;;34.73;26.02;98231.84;4972264;28;20081;-71
2023/06/12 04:31:27;;;;;;;5.68;2.45;;;;;;;35.12;25.51;98228.13;4973269;28;20081;-72
2023/06/12 04:33:54;;;;;;;5.78;2.38;;;;;;;35.43;24.98;98225.84;4973757;28;20034;-71
2023/06/12 04:36:21;;;;;;;10.43;2.80;;;;;;;35.85;24.61;98231.50;4972805;28;20114;-71
2023/06/12 04:38:50;;;;;;;7.28;3.30;;;;;;;36.16;24.14;98223.66;4972518;28;20109;-71
2023/06/12 04:41:27;;;;;;;9.48;3.40;;;;;;;36.50;23.90;98225.28;4972747;28;20031;-71
2023/06/12 04:43:58;;;;;;;10.68;4.13;;;;;;;36.90;23.80;98241.94;4957592;28;20046;-71
2023/06/12 04:46:24;;;;;;;6.75;3.72;;;;;;;37.24;23.75;98239.91;4956695;28;20347;-71
2023/06/12 04:48:50;;;;;;;11.60;3.22;;;;;;;37.61;22.91;98241.53;4973689;28;20146;-71
2023/06/12 04:51:16;;;;;;;6.18;2.75;;;;;;;37.94;22.07;98240.53;4972662;28;20031;-71
2023/06/12 04:53:43;;;;;;;9.40;3.00;;;;;;;38.27;21.79;98238.38;4955839;28;20471;-71
2023/06/12 04:56:09;;;;;;;7.63;2.90;;;;;;;38.62;21.32;98243.22;4973695;28;20026;-71
2023/06/12 04:58:44;;;;;;;5.38;2.33;;;;;;;38.98;20.65;98253.94;4973423;28;20031;-71
2023/06/12 05:01:10;;;;;;;9.40;2.75;;;;;;;39.25;20.10;98257.56;4973924;28;20026;-71
2023/06/12 05:03:38;;;;;;;9.30;2.50;;;;;;;39.52;19.75;98258.38;4972248;28;20137;-71
2023/06/12 05:06:04;;;;;;;6.93;2.42;;;;;;;39.74;19.71;98263.75;4956534;28;20034;-71
2023/06/12 05:08:30;;;;;;;6.67;2.60;;;;;;;39.91;19.39;98262.91;4972348;28;20026;-71
2023/06/12 05:10:56;;;;;;;9.55;2.80;;;;;;;40.21;19.11;98254.06;4972198;28;20042;-71
2023/06/12 05:13:21;;;;;;;10.15;2.35;;;;;;;40.51;18.91;98252.25;4973627;28;20034;-71
2023/06/12 05:15:47;;;;;;;5.75;2.40;;;;;;;40.76;18.84;98250.53;4972949;28;20046;-71
2023/06/12 05:18:13;;;;;;;7.22;2.58;;;;;;;41.07;18.74;98254.09;4973495;28;20026;-72
2023/06/12 05:20:39;;;;;;;15.25;2.63;;;;;;;41.38;19.04;98251.03;4972083;28;20035;-71
2023/06/12 05:23:05;;;;;;;6.25;2.50;;;;;;;41.63;18.26;98249.22;4956183;28;20394;-72
2023/06/12 05:25:30;;;;;;;8.48;2.72;;;;;;;41.87;17.38;98253.25;4971685;28;20035;-72
2023/06/12 05:27:56;;;;;;;14.53;2.90;;;;;;;42.09;17.12;98252.06;4973209;28;20031;-71
2023/06/12 05:30:21;;;;;;;14.00;2.40;;;;;;;42.22;17.41;98261.94;4972125;28;20038;-71
2023/06/12 05:32:47;;;;;;;8.93;2.30;;;;;;;42.33;17.19;98262.31;4973105;28;20166;-71
2023/06/12 05:35:12;;;;;;;8.53;2.47;;;;;;;42.45;16.88;98265.09;4972073;28;20035;-72
2023/06/12 05:37:38;;;;;;;13.27;2.73;;;;;;;42.62;16.97;98271.53;4973165;28;20026;-72
2023/06/12 05:40:05;;;;;;;11.67;2.50;;;;;;;42.79;16.61;98265.81;4971546;28;20039;-72
2023/06/12 05:42:31;;;;;;;9.05;2.70;;;;;;;42.91;16.20;98275.22;4976076;28;20039;-71
2023/06/12 05:44:57;;;;;;;7.43;2.70;;;;;;;43.00;16.51;98279.47;4959980;28;20039;-71
2023/06/12 05:47:22;;;;;;;8.10;2.63;;;;;;;43.05;16.60;98274.88;4976006;28;20046;-71
2023/06/12 05:49:48;;;;;;;8.10;2.70;;;;;;;43.07;16.46;98275.34;4976999;28;20042;-71
2023/06/12 05:52:14;;;;;;;9.80;2.50;;;;;;;43.11;16.30;98279.00;4960080;28;20051;-72
2023/06/12 05:54:39;;;;;;;8.00;2.20;;;;;;;43.17;16.57;98272.94;4975656;28;20055;-72
2023/06/12 05:57:05;;;;;;;5.57;2.27;;;;;;;43.22;16.53;98277.38;4977023;28;20038;-69
2023/06/12 05:59:30;;;;;;;7.33;2.43;;;;;;;43.23;16.47;98276.25;4977118;28;20490;-72
2023/06/12 06:01:56;;;;;;;8.97;2.33;;;;;;;43.25;16.44;98267.66;4977158;28;20043;-74
2023/06/12 06:04:21;;;;;;;5.17;2.13;;;;;;;43.22;16.57;98280.13;4959630;28;20030;-72
2023/06/12 06:06:47;;;;;;;6.67;2.70;;;;;;;43.24;16.41;98279.78;4975480;28;20372;-71
2023/06/12 06:09:16;;;;;;;8.57;2.50;;;;;;;43.16;16.52;98281.53;4976474;28;20043;-72
2023/06/12 06:11:42;;;;;;;5.72;2.38;;;;;;;43.09;16.79;98284.03;4977137;28;20042;-72
2023/06/12 06:14:07;;;;;;;8.03;2.23;;;;;;;42.99;16.49;98286.09;4975629;28;20030;-71
2023/06/12 06:16:33;;;;;;;4.70;2.13;;;;;;;42.92;16.27;98288.59;4959302;28;20033;-72
2023/06/12 06:18:58;;;;;;;5.53;2.07;;;;;;;42.86;16.51;98294.63;4959368;28;20042;-73
2023/06/12 06:21:23;;;;;;;5.00;2.47;;;;;;;42.83;16.72;98296.16;4975309;28;20042;-72
2023/06/12 06:23:49;;;;;;;6.47;2.07;;;;;;;42.83;16.98;98296.94;4976500;28;20031;-74
2023/06/12 06:26:15;;;;;;;5.73;2.00;;;;;;;42.90;16.88;98293.63;4976447;28;20038;-72
2023/06/12 06:28:40;;;;;;;8.13;2.40;;;;;;;42.91;16.84;98299.94;4976499;28;20025;-72
2023/06/12 06:31:09;;;;;;;8.63;2.40;;;;;;;42.83;17.35;98294.19;4976197;28;20042;-72
2023/06/12 06:33:34;;;;;;;10.52;2.75;;;;;;;42.85;17.20;98296.59;4959368;28;20027;-71
2023/06/12 06:36:00;;;;;;;6.17;2.30;;;;;;;42.74;17.45;98298.19;4959214;28;20042;-72
2023/06/12 06:38:26;;;;;;;9.20;2.60;;;;;;;42.78;17.53;98301.84;4974717;28;20070;-71
2023/06/12 06:40:52;;;;;;;7.53;2.57;;;;;;;42.78;17.26;98304.56;4974811;28;20042;-72
2023/06/12 06:43:17;;;;;;;7.97;2.30;;;;;;;42.68;17.36;98305.84;4976132;28;20066;-72
2023/06/12 06:45:43;;;;;;;5.37;2.03;;;;;;;42.63;17.39;98308.81;4974763;28;20109;-72
2023/06/12 06:48:08;;;;;;;5.03;2.20;;;;;;;42.55;17.33;98298.72;4958623;28;20042;-74
2023/06/12 06:50:34;;;;;;;6.43;2.30;;;;;;;42.51;17.25;98301.34;4974669;28;20413;-74
2023/06/12 06:53:02;;;;;;;7.20;2.53;;;;;;;42.41;17.33;98304.50;4975456;28;20042;-72
2023/06/12 06:55:27;;;;;;;13.60;2.00;;;;;;;42.35;17.71;98303.13;4976589;28;20057;-73
2023/06/12 06:57:54;;;;;;;9.43;2.33;;;;;;;42.10;17.67;98286.56;4958439;28;20437;-74
2023/06/12 07:00:21;;;;;;;6.35;2.00;;;;;;;42.01;18.03;98299.56;4974892;28;20034;-73
2023/06/12 07:02:47;;;;;;;9.80;2.55;;;;;;;41.97;17.61;98301.34;4975949;28;20501;-73
2023/06/12 07:05:14;;;;;;;9.15;2.13;;;;;;;41.87;17.92;98300.63;4975726;28;20026;-73
2023/06/12 07:07:39;;;;;;;5.10;2.38;;;;;;;41.79;17.81;98296.03;4974303;28;20454;-73
2023/06/12 07:10:06;;;;;;;8.13;2.10;;;;;;;41.71;18.30;98294.16;4974400;28;20093;-73
2023/06/12 07:12:33;;;;;;;4.63;1.92;;;;;;;41.73;17.84;98298.16;4974968;28;20035;-73
2023/06/12 07:14:58;;;;;;;;;;;;;;;41.50;18.09;98292.19;4942670;28;20042;-74
2023/06/12 07:17:24;;;;;;;6.87;2.10;;;;;;;41.40;18.27;98290.66;4974662;28;19917;-73
2023/06/12 07:19:49;;;;;;;4.28;2.00;;;;;;;41.29;18.21;98288.63;4974458;28;20035;-72
2023/06/12 07:22:15;;;;;;;7.35;2.13;;;;;;;41.20;18.39;98286.72;4975358;28;20182;-72
2023/06/12 07:24:41;;;;;;;5.10;1.88;;;;;;;41.15;18.52;98291.56;4958564;28;20054;-72
2023/06/12 07:27:06;;;;;;;7.87;2.30;;;;;;;40.89;18.67;98284.28;4957923;28;20027;-72
2023/06/12 07:29:32;;;;;;;5.97;2.22;;;;;;;40.62;18.90;98283.56;4974713;28;20027;-72
2023/06/12 07:31:57;;;;;;;11.07;2.47;;;;;;;40.43;19.59;98283.94;4975282;28;20066;-73
2023/06/12 07:34:23;;;;;;;6.47;2.10;;;;;;;40.35;19.50;98273.81;4975088;28;20117;-72
2023/06/12 07:36:48;;;;;;;6.43;2.08;;;;;;;40.15;19.42;98275.28;4973900;28;20066;-73
2023/06/12 07:39:14;;;;;;;4.93;1.90;;;;;;;39.54;20.41;98275.31;4957928;28;20057;-73
2023/06/12 07:41:42;;;;;;;7.38;2.38;;;;;;;39.78;20.27;98281.09;4975269;28;20034;-73
2023/06/12 07:44:08;;;;;;;5.20;2.15;;;;;;;39.42;20.37;98279.41;4975251;28;20173;-73
2023/06/12 07:46:33;;;;;;;7.35;1.92;;;;;;;38.59;21.33;98274.63;4974993;28;20030;-72
2023/06/12 07:48:59;;;;;;;6.20;2.20;;;;;;;38.87;21.43;98279.88;4973727;28;20041;-74
2023/06/12 07:51:24;;;;;;;5.07;1.92;;;;;;;38.94;21.27;98274.78;4973488;28;20405;-72
2023/06/12 07:53:50;;;;;;;10.75;2.38;;;;;;;39.00;21.26;98267.25;4975233;28;20081;-73
2023/06/12 07:56:17;;;;;;;4.72;2.00;;;;;;;39.09;21.55;98273.56;4975024;28;20478;-71
2023/06/12 07:58:43;;;;;;;;;;;;;;;38.19;22.38;98271.81;4974165;28;20041;-71
2023/06/12 08:01:10;;;;;;;6.53;2.17;;;;;;;38.62;21.92;98265.84;4973853;28;19918;-72
2023/06/12 08:03:39;;;;;;;7.15;1.92;;;;;;;38.07;22.05;98271.56;4973407;28;20031;-74
2023/06/12 08:06:11;;;;;;;3.38;1.90;;;;;;;37.25;23.15;98263.31;4973271;28;20032;-73
2023/06/12 08:08:45;;;;;;;8.05;1.73;;;;;;;36.85;23.56;98268.44;4973414;28;20043;-74
2023/06/12 08:11:11;;;;;;;7.35;2.22;;;;;;;36.75;23.54;98267.53;4973825;28;20100;-73
2023/06/12 08:13:37;;;;;;;6.50;1.95;;;;;;;36.65;23.69;98269.59;4973539;28;20030;-72
2023/06/12 08:16:03;;;;;;;6.32;2.00;;;;;;;36.53;23.93;98265.44;4974678;28;20030;-71
2023/06/12 08:18:28;;;;;;;7.78;2.15;;;;;;;36.73;23.61;98260.75;4957264;28;20034;-72
2023/06/12 08:20:54;;;;;;;6.05;2.10;;;;;;;36.70;23.79;98267.56;4973445;28;20038;-72
2023/06/12 08:23:20;;;;;;;5.32;2.10;;;;;;;36.31;24.05;98257.13;4974493;28;20066;-74
2023/06/12 08:25:45;;;;;;;5.65;2.03;;;;;;;36.04;24.13;98259.47;4974375;28;20037;-72
2023/06/12 08:28:11;;;;;;;3.63;1.73;;;;;;;36.12;24.35;98252.53;4973236;28;20034;-71
2023/06/12 08:30:36;;;;;;;5.00;2.10;;;;;;;36.35;23.91;98258.16;4974424;28;20031;-73
2023/06/12 08:33:03;;;;;;;4.10;1.83;;;;;;;36.22;23.90;98248.84;4957279;28;20042;-73
2023/06/12 08:35:29;;;;;;;5.87;1.77;;;;;;;36.02;24.37;98255.41;4973584;28;20026;-75
2023/06/12 08:37:54;;;;;;;8.20;1.98;;;;;;;36.06;24.51;98251.00;4973480;28;20031;-74
2023/06/12 08:40:20;;;;;;;6.65;2.00;;;;;;;35.72;24.72;98254.75;4973156;28;20041;-74
2023/06/12 08:42:49;;;;;;;4.60;2.03;;;;;;;35.19;25.31;98249.47;4972980;28;20061;-73
2023/06/12 08:45:15;;;;;;;5.10;1.70;;;;;;;34.93;25.67;98260.63;4972903;28;20034;-73
2023/06/12 08:47:40;;;;;;;5.20;2.10;;;;;;;34.77;26.45;98258.09;4973059;28;20035;-71
2023/06/12 08:50:06;;;;;;;6.53;2.10;;;;;;;35.03;25.45;98243.44;4972603;28;20418;-74
2023/06/12 08:52:32;;;;;;;6.30;2.00;;;;;;;34.61;26.29;98260.13;4956573;28;20026;-72
2023/06/12 08:54:57;;;;;;;5.13;2.17;;;;;;;34.85;26.10;98264.00;4972683;28;20059;-72
2023/06/12 08:57:23;;;;;;;5.70;1.95;;;;;;;34.95;26.09;98261.97;4973848;28;20107;-73
2023/06/12 08:59:48;;;;;;;6.05;2.00;;;;;;;35.12;26.14;98255.25;4972587;28;20471;-73
2023/06/12 09:02:15;;;;;;;8.32;2.30;;;;;;;35.40;25.81;98252.78;4956740;28;20039;-74
2023/06/12 09:04:47;;;;;;;6.50;1.92;;;;;;;35.12;25.92;98255.25;4972954;28;20034;-73
2023/06/12 09:07:17;;;;;;;4.13;1.98;;;;;;;34.81;26.20;98246.66;4972717;28;20498;-72
2023/06/12 09:09:45;;;;;;;4.32;1.90;;;;;;;34.62;26.97;98244.69;4972702;28;20037;-72
2023/06/12 09:12:12;;;;;;;8.30;2.42;;;;;;;34.50;26.81;98247.78;4973718;28;20034;-74
2023/06/12 09:14:41;;;;;;;7.47;1.95;;;;;;;34.24;26.64;98242.59;4956704;28;20034;-73
2023/06/12 09:17:07;;;;;;;7.30;2.10;;;;;;;34.45;26.89;98241.63;4956708;28;20546;-72
2023/06/12 09:19:47;;;;;;;6.35;2.20;;;;;;;34.20;27.07;98233.38;4956308;28;20030;-73
2023/06/12 09:22:13;;;;;;;5.57;2.10;;;;;;;34.15;27.43;98230.72;4972327;28;20473;-72
2023/06/12 09:24:39;;;;;;;7.45;2.15;;;;;;;34.03;27.75;98233.81;4972401;28;20026;-72
2023/06/12 09:27:04;;;;;;;6.20;2.30;;;;;;;34.11;27.97;98226.16;4973405;28;20058;-72
2023/06/12 09:29:34;;;;;;;6.90;2.30;;;;;;;34.20;26.89;98229.88;4972553;28;20041;-73
2023/06/12 09:32:03;;;;;;;6.18;2.00;;;;;;;34.28;27.18;98223.06;4972434;28;20027;-71
2023/06/12 09:34:32;;;;;;;4.47;2.17;;;;;;;34.40;26.47;98220.78;4956610;28;20034;-72
2023/06/12 09:37:09;;;;;;;4.47;2.10;;;;;;;34.23;26.89;98218.50;4956373;28;20080;-73
2023/06/12 09:39:34;;;;;;;7.03;2.33;;;;;;;34.23;27.39;98219.31;4956378;28;20031;-73
2023/06/12 09:42:01;;;;;;;7.55;1.98;;;;;;;34.21;27.25;98207.94;4956282;28;20034;-71
2023/06/12 09:44:28;;;;;;;6.05;2.30;;;;;;;34.20;27.52;98211.72;4956448;28;20030;-71
2023/06/12 09:47:02;;;;;;;6.05;2.22;;;;;;;34.24;27.77;98201.97;4956218;28;20069;-73
2023/06/12 09:49:27;;;;;;;4.70;2.10;;;;;;;34.36;27.09;98208.91;4956329;28;20043;-72
2023/06/12 09:51:56;;;;;;;4.88;2.25;;;;;;;34.29;27.04;98217.38;4972176;28;20041;-72
2023/06/12 09:54:22;;;;;;;4.70;2.38;;;;;;;34.21;27.16;98212.56;4972301;28;20117;-71
2023/06/12 09:56:49;;;;;;;5.65;2.10;;;;;;;34.17;27.33;98197.94;4972224;28;20453;-72
2023/06/12 09:59:18;;;;;;;5.10;2.50;;;;;;;34.09;27.69;98199.38;4972167;28;20033;-71
2023/06/12 10:01:49;;;;;;;6.60;2.30;;;;;;;33.87;27.71;98197.13;4972140;28;20284;-73
2023/06/12 10:04:23;;;;;;;6.00;2.10;;;;;;;33.90;27.58;98199.25;4971891;28;20038;-72
2023/06/12 10:06:48;;;;;;;5.68;2.25;;;;;;;33.66;27.93;98205.34;4955844;28;20458;-71
2023/06/12 10:09:14;;;;;;;3.75;2.10;;;;;;;33.51;28.32;98202.75;4971872;28;20066;-71
2023/06/12 10:11:39;;;;;;;6.43;2.30;;;;;;;33.51;28.21;98200.03;4973060;28;20481;-71
2023/06/12 10:14:05;;;;;;;6.28;2.28;;;;;;;33.36;28.45;98199.06;4956071;28;20050;-72
2023/06/12 10:16:31;;;;;;;3.90;1.98;;;;;;;33.36;29.38;98201.75;4971850;28;20034;-71
2023/06/12 10:18:57;;;;;;;5.35;2.60;;;;;;;33.17;29.63;98201.59;4956203;28;20114;-73
2023/06/12 10:21:22;;;;;;;4.05;2.25;;;;;;;32.94;29.70;98189.53;4971592;28;20039;-69
2023/06/12 10:23:50;;;;;;;4.05;2.10;;;;;;;32.93;31.04;98184.41;4972155;28;20097;-70
2023/06/12 10:26:15;;;;;;;10.43;2.45;;;;;;;32.82;30.13;98192.53;4955689;28;20498;-70
2023/06/12 10:28:41;;;;;;;7.28;2.22;;;;;;;32.68;30.41;98188.00;4973816;28;20094;-70
2023/06/12 10:31:17;;;;;;;5.10;2.20;;;;;;;32.62;30.97;98185.28;4959513;28;20082;-76
2023/06/12 10:34:00;;;;;;;4.43;2.30;;;;;;;32.61;30.85;98190.97;4958923;28;20037;-74
2023/06/12 10:36:44;;;;;;;7.10;2.35;;;;;;;32.59;31.05;98188.53;4976184;28;20034;-72
2023/06/12 10:39:19;;;;;;;9.52;2.30;;;;;;;32.56;30.37;98180.97;4960258;28;20039;-74
2023/06/12 10:41:55;;;;;;;5.15;2.20;;;;;;;32.53;30.77;98180.69;4959740;28;20105;-71
2023/06/12 10:44:41;;;;;;;4.95;2.40;;;;;;;32.43;29.99;98176.97;4974793;28;20119;-76
2023/06/12 10:47:21;;;;;;;8.65;2.55;;;;;;;32.08;30.53;98177.78;4974859;28;20023;-73
2023/06/12 10:50:05;;;;;;;9.38;2.40;;;;;;;32.07;30.28;98181.56;4958774;28;20041;-75
2023/06/12 10:52:30;;;;;;;6.80;2.40;;;;;;;32.06;30.01;98183.47;4976009;28;20375;-73
2023/06/12 10:55:19;;;;;;;4.38;1.98;;;;;;;31.90;29.99;98176.47;4958435;28;20062;-74
2023/06/12 10:57:52;;;;;;;6.53;2.30;;;;;;;31.81;30.05;98175.38;4974656;28;20031;-73
2023/06/12 11:00:19;;;;;;;5.95;2.38;;;;;;;31.79;30.29;98172.94;4958412;28;20062;-73
2023/06/12 11:02:46;;;;;;;5.10;2.50;;;;;;;31.84;30.45;98175.63;4958252;28;20121;-73
2023/06/12 11:05:11;;;;;;;4.10;2.33;;;;;;;31.84;30.61;98169.44;4975248;28;20186;-74
2023/06/12 11:07:38;;;;;;;6.35;2.28;;;;;;;31.81;30.65;98159.19;4975116;28;20278;-74
2023/06/12 11:10:10;;;;;;;7.63;2.45;;;;;;;31.79;30.82;98170.25;4958285;28;20101;-74
2023/06/12 11:12:36;;;;;;;6.60;2.40;;;;;;;31.71;30.26;98170.78;4974387;28;20073;-74
2023/06/12 11:15:01;;;;;;;8.25;2.25;;;;;;;31.63;31.14;98157.81;4974541;28;20113;-75
2023/06/12 11:17:30;;;;;;;6.55;2.53;;;;;;;31.55;31.15;98162.69;4974171;28;20039;-73
2023/06/12 11:20:02;;;;;;;8.43;2.30;;;;;;;31.61;30.76;98165.38;4974566;28;20116;-74
2023/06/12 11:22:27;;;;;;;6.68;2.53;;;;;;;31.60;30.83;98169.16;4975574;28;20031;-73
2023/06/12 11:25:00;;;;;;;6.22;2.40;;;;;;;31.62;30.81;98162.41;4975592;28;20030;-74
2023/06/12 11:27:25;;;;;;;6.72;2.22;;;;;;;31.70;30.36;98163.75;4958480;28;20043;-73
2023/06/12 11:29:50;;;;;;;8.00;2.40;;;;;;;31.76;30.46;98172.69;4958172;28;20027;-73